createdAt,value
2023-03-22T00:02:13.952Z,98.48
2023-03-22T00:04:42.767Z,97.98
2023-03-22T00:07:10.239Z,97.16
2023-03-22T00:09:37.692Z,98.13
2023-03-22T00:12:06.763Z,99.53
2023-03-22T00:14:34.030Z,99.78
2023-03-22T00:17:01.314Z,100.00
2023-03-22T00:19:29.112Z,99.02
2023-03-22T00:21:56.686Z,97.85
2023-03-22T00:24:23.958Z,99.22
2023-03-22T00:26:51.210Z,99.42
2023-03-22T00:29:22.443Z,98.92
2023-03-22T00:31:51.965Z,97.08
2023-03-22T00:34:19.338Z,96.78
2023-03-22T00:36:46.595Z,96.40
2023-03-22T00:39:13.877Z,96.54
2023-03-22T00:41:41.319Z,96.49
2023-03-22T00:44:08.596Z,96.65
2023-03-22T00:46:37.506Z,96.13
2023-03-22T00:49:05.257Z,95.79
2023-03-22T00:51:32.502Z,95.83
2023-03-22T00:53:59.767Z,95.61
2023-03-22T00:56:28.686Z,96.10
2023-03-22T00:58:56.234Z,96.25
2023-03-22T01:01:23.560Z,96.49
2023-03-22T01:03:52.402Z,95.95
2023-03-22T01:06:19.732Z,96.14
2023-03-22T01:08:47.002Z,96.66
2023-03-22T01:11:14.408Z,97.13
2023-03-22T01:13:42.154Z,97.52
2023-03-22T01:16:10.349Z,99.95
2023-03-22T01:18:37.705Z,100.00
2023-03-22T01:21:06.806Z,100.00
2023-03-22T01:23:34.064Z,100.00
2023-03-22T01:26:01.762Z,100.00
2023-03-22T01:28:29.132Z,100.00
2023-03-22T01:30:56.757Z,100.00
2023-03-22T01:33:24.091Z,100.00
2023-03-22T01:35:52.566Z,100.00
2023-03-22T01:38:21.590Z,100.00
2023-03-22T01:40:49.008Z,100.00
2023-03-22T01:43:17.299Z,100.00
2023-03-22T01:45:45.861Z,100.00
2023-03-22T01:48:16.289Z,100.00
2023-03-22T01:50:45.365Z,100.00
2023-03-22T01:53:14.367Z,100.00
2023-03-22T01:55:43.185Z,100.00
2023-03-22T01:58:10.692Z,100.00
2023-03-22T02:00:38.387Z,100.00
2023-03-22T02:03:07.082Z,100.00
2023-03-22T02:05:35.465Z,100.00
2023-03-22T02:08:03.068Z,100.00
2023-03-22T02:10:30.370Z,100.00
2023-03-22T02:13:03.878Z,100.00
2023-03-22T02:15:35.024Z,100.00
2023-03-22T02:18:11.358Z,100.00
2023-03-22T02:21:06.338Z,100.00
2023-03-22T02:23:47.664Z,100.00
2023-03-22T02:26:29.874Z,100.00
2023-03-22T02:29:04.072Z,100.00
2023-03-22T02:31:50.877Z,100.00
2023-03-22T02:34:33.443Z,100.00
2023-03-22T02:37:18.445Z,100.00
2023-03-22T02:39:49.836Z,100.00
2023-03-22T02:42:24.455Z,100.00
2023-03-22T02:44:59.005Z,100.00
2023-03-22T02:47:28.218Z,100.00
2023-03-22T02:49:57.613Z,100.00
2023-03-22T02:52:29.227Z,100.00
2023-03-22T02:55:04.348Z,100.00
2023-03-22T02:57:34.633Z,100.00
2023-03-22T03:00:07.986Z,100.00
2023-03-22T03:02:35.942Z,100.00
2023-03-22T03:05:03.739Z,100.00
2023-03-22T03:07:31.279Z,100.00
2023-03-22T03:10:00.453Z,100.00
2023-03-22T03:12:28.569Z,99.00
2023-03-22T03:14:55.943Z,99.43
2023-03-22T03:17:28.606Z,98.87
2023-03-22T03:20:00.389Z,98.54
2023-03-22T03:22:33.031Z,99.93
2023-03-22T03:25:06.698Z,100.00
2023-03-22T03:27:36.451Z,99.61
2023-03-22T03:30:06.669Z,98.37
2023-03-22T03:32:38.347Z,98.57
2023-03-22T03:35:08.541Z,100.00
2023-03-22T03:37:37.845Z,100.00
2023-03-22T03:40:10.734Z,100.00
2023-03-22T03:42:38.995Z,100.00
2023-03-22T03:45:07.199Z,99.94
2023-03-22T03:47:35.831Z,98.53
2023-03-22T03:50:03.339Z,97.44
2023-03-22T03:52:30.692Z,98.04
2023-03-22T03:54:58.067Z,99.52
2023-03-22T03:57:27.101Z,100.00
2023-03-22T03:59:54.444Z,100.00
2023-03-22T04:02:21.747Z,100.00
2023-03-22T04:04:49.057Z,100.00
2023-03-22T04:07:16.357Z,100.00
2023-03-22T04:09:43.725Z,100.00
2023-03-22T04:12:11.115Z,100.00
2023-03-22T04:14:39.717Z,100.00
2023-03-22T04:17:07.000Z,100.00
2023-03-22T04:19:34.340Z,100.00
2023-03-22T04:22:01.622Z,100.00
2023-03-22T04:24:28.934Z,100.00
2023-03-22T04:26:56.752Z,100.00
2023-03-22T04:29:24.476Z,100.00
2023-03-22T04:31:54.148Z,100.00
2023-03-22T04:34:21.413Z,100.00
2023-03-22T04:36:49.726Z,100.00
2023-03-22T04:39:17.003Z,100.00
2023-03-22T04:41:44.265Z,100.00
2023-03-22T04:44:11.614Z,100.00
2023-03-22T04:46:39.091Z,100.00
2023-03-22T04:49:07.807Z,100.00
2023-03-22T04:51:35.223Z,100.00
2023-03-22T04:54:02.559Z,100.00
2023-03-22T04:56:29.826Z,100.00
2023-03-22T04:58:57.089Z,100.00
2023-03-22T05:01:24.387Z,100.00
2023-03-22T05:03:51.693Z,100.00
2023-03-22T05:06:20.286Z,100.00
2023-03-22T05:08:47.549Z,100.00
2023-03-22T05:11:16.353Z,100.00
2023-03-22T05:13:44.009Z,100.00
2023-03-22T05:16:11.403Z,100.00
2023-03-22T05:18:42.435Z,99.81
2023-03-22T05:21:13.644Z,100.00
2023-03-22T05:23:42.821Z,100.00
2023-03-22T05:26:10.396Z,99.76
2023-03-22T05:28:38.540Z,100.00
2023-03-22T05:31:06.430Z,100.00
2023-03-22T05:33:34.717Z,99.20
2023-03-22T05:36:02.157Z,99.48
2023-03-22T05:38:29.642Z,98.67
2023-03-22T05:40:58.224Z,98.43
2023-03-22T05:43:25.555Z,98.36
2023-03-22T05:45:53.010Z,95.92
2023-03-22T05:48:20.341Z,95.78
2023-03-22T05:50:47.690Z,94.13
2023-03-22T05:53:14.982Z,92.43
2023-03-22T05:55:42.621Z,92.06
2023-03-22T05:58:11.205Z,90.11
2023-03-22T06:00:38.871Z,90.13
2023-03-22T06:03:06.372Z,89.92
2023-03-22T06:05:36.434Z,88.95
2023-03-22T06:08:04.573Z,88.57
2023-03-22T06:10:32.155Z,88.30
2023-03-22T06:12:59.540Z,88.03
2023-03-22T06:15:28.168Z,90.31
2023-03-22T06:17:55.458Z,91.02
2023-03-22T06:20:22.715Z,89.94
2023-03-22T06:22:50.030Z,89.40
2023-03-22T06:25:17.527Z,90.58
2023-03-22T06:27:44.831Z,88.01
2023-03-22T06:30:12.374Z,86.95
2023-03-22T06:32:41.027Z,86.74
2023-03-22T06:35:08.796Z,86.49
2023-03-22T06:37:36.079Z,87.14
2023-03-22T06:40:03.667Z,87.10
2023-03-22T06:42:31.624Z,86.69
2023-03-22T06:44:58.890Z,85.72
2023-03-22T06:47:26.355Z,83.62
2023-03-22T06:49:55.213Z,86.32
2023-03-22T06:52:22.573Z,86.01
2023-03-22T06:54:49.839Z,86.57
2023-03-22T06:57:17.112Z,86.49
2023-03-22T06:59:44.407Z,84.88
2023-03-22T07:02:12.772Z,84.79
2023-03-22T07:04:40.263Z,83.77
2023-03-22T07:07:08.842Z,85.42
2023-03-22T07:09:36.137Z,85.97
2023-03-22T07:12:04.936Z,84.53
2023-03-22T07:14:32.461Z,84.09
2023-03-22T07:16:59.780Z,82.68
2023-03-22T07:19:27.702Z,82.31
2023-03-22T07:21:55.006Z,81.90
2023-03-22T07:24:23.650Z,80.48
2023-03-22T07:26:51.067Z,80.30
2023-03-22T07:29:18.376Z,80.10
2023-03-22T07:31:45.799Z,80.73
2023-03-22T07:34:13.261Z,80.00
2023-03-22T07:36:40.571Z,79.19
2023-03-22T07:39:07.906Z,79.08
2023-03-22T07:41:36.526Z,78.45
2023-03-22T07:44:17.046Z,76.86
2023-03-22T07:46:45.207Z,76.25
2023-03-22T07:49:12.513Z,75.70
2023-03-22T07:51:39.822Z,74.53
2023-03-22T07:54:08.003Z,74.35
2023-03-22T07:56:36.687Z,72.41
2023-03-22T07:59:04.098Z,71.94
2023-03-22T08:01:31.417Z,71.16
2023-03-22T08:03:58.777Z,67.73
2023-03-22T08:06:26.130Z,68.38
2023-03-22T08:08:53.377Z,67.69
2023-03-22T08:11:20.650Z,67.45
2023-03-22T08:13:49.304Z,68.56
2023-03-22T08:16:16.998Z,66.93
2023-03-22T08:18:45.427Z,67.07
2023-03-22T08:21:12.831Z,68.83
2023-03-22T08:23:42.096Z,68.93
2023-03-22T08:26:10.231Z,65.81
2023-03-22T08:28:37.801Z,63.14
2023-03-22T08:31:13.936Z,64.08
2023-03-22T08:33:42.470Z,66.21
2023-03-22T08:36:11.342Z,58.59
2023-03-22T08:38:38.669Z,59.53
2023-03-22T08:41:05.999Z,60.22
2023-03-22T08:43:33.272Z,60.37
2023-03-22T08:46:00.729Z,59.23
2023-03-22T08:48:30.642Z,58.23
2023-03-22T08:50:58.054Z,58.83
2023-03-22T08:53:25.344Z,56.78
2023-03-22T08:55:52.622Z,56.84
2023-03-22T08:58:20.574Z,57.79
2023-03-22T09:00:49.708Z,56.48
2023-03-22T09:03:17.231Z,56.55
2023-03-22T09:05:45.854Z,55.12
2023-03-22T09:08:19.216Z,55.83
2023-03-22T09:10:51.211Z,57.25
2023-03-22T09:13:18.564Z,55.43
2023-03-22T09:15:46.127Z,55.29
2023-03-22T09:18:13.885Z,56.01
2023-03-22T09:20:41.713Z,57.10
2023-03-22T09:23:10.614Z,55.28
2023-03-22T09:25:38.276Z,54.20
2023-03-22T09:28:05.859Z,53.93
2023-03-22T09:30:33.239Z,53.63
2023-03-22T09:33:00.499Z,52.17
2023-03-22T09:35:27.778Z,52.64
2023-03-22T09:37:56.060Z,50.86
2023-03-22T09:40:26.723Z,51.01
2023-03-22T09:42:58.254Z,51.12
2023-03-22T09:45:32.162Z,51.07
2023-03-22T09:48:00.015Z,50.10
2023-03-22T09:50:28.686Z,50.23
2023-03-22T09:52:56.119Z,51.69
2023-03-22T09:55:31.460Z,49.88
2023-03-22T09:58:02.934Z,48.63
2023-03-22T10:00:36.049Z,48.60
2023-03-22T10:03:10.593Z,48.05
2023-03-22T10:05:41.377Z,50.97
2023-03-22T10:08:26.807Z,48.84
2023-03-22T10:10:55.521Z,46.92
2023-03-22T10:13:24.741Z,47.69
2023-03-22T10:15:53.363Z,46.83
2023-03-22T10:18:21.937Z,47.62
2023-03-22T10:20:51.203Z,46.78
2023-03-22T10:23:21.376Z,47.86
2023-03-22T10:25:48.767Z,47.70
2023-03-22T10:28:20.370Z,48.54
2023-03-22T10:30:53.210Z,49.53
2023-03-22T10:33:23.820Z,48.99
2023-03-22T10:35:53.025Z,47.82
2023-03-22T10:38:22.313Z,48.97
2023-03-22T10:40:50.449Z,49.90
2023-03-22T10:43:22.251Z,48.23
2023-03-22T10:45:49.644Z,48.96
2023-03-22T10:48:21.666Z,49.60
2023-03-22T10:50:49.153Z,48.96
2023-03-22T10:53:22.062Z,48.82
2023-03-22T10:55:49.329Z,48.41
2023-03-22T10:58:17.687Z,48.90
2023-03-22T11:00:47.288Z,48.32
2023-03-22T11:03:26.409Z,50.12
2023-03-22T11:05:58.628Z,48.21
2023-03-22T11:08:25.878Z,47.98
2023-03-22T11:10:55.005Z,48.57
2023-03-22T11:13:24.441Z,47.34
2023-03-22T11:15:55.300Z,47.12
2023-03-22T11:18:22.636Z,48.25
2023-03-22T11:20:55.428Z,48.11
2023-03-22T11:23:23.469Z,48.04
2023-03-22T11:25:51.625Z,47.21
2023-03-22T11:28:20.948Z,47.56
2023-03-22T11:31:00.487Z,46.44
2023-03-22T11:33:27.747Z,46.81
2023-03-22T11:35:55.739Z,46.68
2023-03-22T11:38:24.968Z,47.00
2023-03-22T11:40:55.687Z,46.15
2023-03-22T11:43:24.424Z,44.90
2023-03-22T11:45:54.413Z,47.52
2023-03-22T11:48:24.399Z,44.69
2023-03-22T11:50:54.196Z,45.39
2023-03-22T11:53:23.473Z,45.63
2023-03-22T11:55:52.821Z,45.48
2023-03-22T11:58:26.308Z,45.71
2023-03-22T12:00:54.264Z,44.91
2023-03-22T12:03:26.057Z,46.42
2023-03-22T12:05:53.858Z,44.93
2023-03-22T12:08:24.919Z,45.30
2023-03-22T12:10:54.640Z,44.77
2023-03-22T12:13:23.831Z,44.35
2023-03-22T12:15:53.824Z,44.68
2023-03-22T12:18:27.462Z,44.37
2023-03-22T12:20:57.110Z,45.19
2023-03-22T12:23:26.146Z,45.36
2023-03-22T12:25:57.234Z,44.21
2023-03-22T12:28:28.976Z,45.24
2023-03-22T12:30:58.472Z,44.74
2023-03-22T12:33:27.485Z,43.49
2023-03-22T12:35:58.783Z,44.33
2023-03-22T12:38:29.587Z,44.32
2023-03-22T12:40:59.046Z,45.01
2023-03-22T12:43:33.739Z,45.42
2023-03-22T12:46:02.845Z,43.69
2023-03-22T12:48:33.861Z,43.66
2023-03-22T12:51:05.187Z,43.51
2023-03-22T12:53:34.706Z,43.57
2023-03-22T12:56:02.649Z,44.32
2023-03-22T12:58:29.993Z,44.59
2023-03-22T13:00:59.358Z,42.51
2023-03-22T13:03:28.806Z,42.80
2023-03-22T13:06:01.331Z,42.76
2023-03-22T13:08:49.960Z,42.70
2023-03-22T13:11:23.194Z,43.26
2023-03-22T13:13:50.561Z,41.00
2023-03-22T13:16:22.539Z,40.99
2023-03-22T13:19:08.250Z,40.90
2023-03-22T13:21:39.810Z,40.98
2023-03-22T13:24:24.140Z,40.75
2023-03-22T13:26:53.160Z,41.12
2023-03-22T13:29:21.773Z,40.44
2023-03-22T13:31:57.269Z,42.29
2023-03-22T13:34:31.853Z,40.88
2023-03-22T13:37:01.485Z,40.51
2023-03-22T13:39:39.245Z,40.81
2023-03-22T13:42:17.848Z,40.33
2023-03-22T13:44:47.043Z,40.78
2023-03-22T13:47:34.600Z,40.93
2023-03-22T13:50:06.825Z,40.94
2023-03-22T13:52:35.954Z,41.47
2023-03-22T13:55:05.434Z,40.75
2023-03-22T13:57:40.899Z,40.32
2023-03-22T14:00:20.461Z,40.19
2023-03-22T14:02:49.712Z,40.72
2023-03-22T14:05:18.875Z,41.20
2023-03-22T14:07:48.759Z,40.31
2023-03-22T14:10:23.438Z,40.80
2023-03-22T14:12:53.059Z,41.21
2023-03-22T14:15:22.714Z,41.09
2023-03-22T14:17:52.196Z,41.36
2023-03-22T14:20:21.911Z,41.66
